Time;durP1;ratioP1;P1;durP2;ratioP2;P2;SDS_P1;SDS_P2;PMS_P1;PMS_P2;Temp;Humidity;BMP_temperature;BMP_pressure;BME280_temperature;BME280_humidity;BME280_pressure;Samples;Min_cycle;Max_cycle;Signal;HPM_P1;HPM_P2
2023/07/04 00:02:07;;;;;;;9.57;6.43;;;18.70;90.50;;;;;;5050569;28;20033;-54
2023/07/04 00:04:53;;;;;;;12.13;6.30;;;18.60;90.50;;;;;;5052175;28;20040;-54
2023/07/04 00:07:41;;;;;;;14.68;6.63;;;18.70;90.50;;;;;;5050593;28;20037;-54
2023/07/04 00:10:27;;;;;;;12.20;6.53;;;18.60;90.60;;;;;;5040653;28;20092;-54
2023/07/04 00:13:15;;;;;;;12.43;6.40;;;18.50;90.70;;;;;;5032043;28;20048;-56
2023/07/04 00:16:05;;;;;;;10.10;5.35;;;18.60;90.70;;;;;;5031873;28;20159;-55
2023/07/04 00:18:51;;;;;;;9.48;5.97;;;18.60;90.70;;;;;;5031905;28;20029;-55
2023/07/04 00:21:38;;;;;;;10.35;6.47;;;18.60;90.80;;;;;;5059014;28;20053;-54
2023/07/04 00:24:24;;;;;;;9.63;5.97;;;18.60;90.90;;;;;;5032703;28;20032;-54
2023/07/04 00:27:12;;;;;;;11.98;8.57;;;18.60;90.90;;;;;;5034040;28;20095;-54
2023/07/04 00:29:58;;;;;;;12.27;7.30;;;18.50;91.10;;;;;;5032502;28;20072;-54
2023/07/04 00:32:44;;;;;;;10.98;5.72;;;18.50;91.10;;;;;;5033583;28;20029;-54
2023/07/04 00:35:30;;;;;;;7.78;5.30;;;18.50;91.10;;;;;;5031647;28;20069;-55
2023/07/04 00:38:19;;;;;;;7.68;5.43;;;18.60;91.30;;;;;;5031793;28;20083;-55
2023/07/04 00:41:20;;;;;;;7.00;5.03;;;18.50;91.60;;;;;;5012066;28;20108;-54
2023/07/04 00:44:13;;;;;;;11.35;5.05;;;18.50;91.80;;;;;;5012469;28;20491;-54
2023/07/04 00:47:10;;;;;;;9.52;4.93;;;18.40;92.00;;;;;;5012200;28;20052;-51
2023/07/04 00:50:06;;;;;;;11.35;4.95;;;18.30;92.00;;;;;;5012151;28;20104;-54
2023/07/04 00:52:55;;;;;;;10.85;5.20;;;18.40;92.10;;;;;;5022614;28;20026;-51
2023/07/04 00:55:45;;;;;;;6.28;4.78;;;18.40;92.20;;;;;;5035306;28;20025;-52
2023/07/04 00:58:32;;;;;;;10.27;4.93;;;18.40;92.30;;;;;;5032314;28;20053;-55
2023/07/04 01:01:19;;;;;;;6.55;4.68;;;18.30;92.40;;;;;;5031909;28;20437;-55
2023/07/04 01:04:05;;;;;;;9.13;5.18;;;18.40;92.40;;;;;;5031816;28;20036;-53
2023/07/04 01:07:17;;;;;;;9.50;5.28;;;18.40;92.50;;;;;;5032102;28;20017;-53
2023/07/04 01:10:14;;;;;;;8.82;5.38;;;18.30;92.60;;;;;;5049826;28;20017;-53
2023/07/04 01:13:00;;;;;;;7.00;4.72;;;18.30;92.80;;;;;;5054046;28;20072;-51
2023/07/04 01:15:46;;;;;;;9.35;4.95;;;18.20;93.00;;;;;;5054969;28;20029;-56
2023/07/04 01:18:32;;;;;;;8.10;5.18;;;18.20;93.10;;;;;;5053721;28;20410;-55
2023/07/04 01:21:22;;;;;;;7.90;5.30;;;18.20;93.20;;;;;;5053726;28;20035;-55
2023/07/04 01:24:32;;;;;;;9.38;5.05;;;18.10;93.40;;;;;;5054414;28;20051;-54
2023/07/04 01:27:20;;;;;;;7.95;4.72;;;18.10;93.50;;;;;;5053349;28;20106;-54
2023/07/04 01:30:08;;;;;;;7.00;4.70;;;18.10;93.50;;;;;;5055056;28;20040;-56
2023/07/04 01:32:55;;;;;;;7.35;4.70;;;18.00;93.70;;;;;;5058231;28;20029;-55
2023/07/04 01:35:43;;;;;;;6.70;4.88;;;18.00;93.80;;;;;;5054114;28;20059;-55
2023/07/04 01:38:30;;;;;;;10.63;5.28;;;17.90;94.10;;;;;;5051943;28;20492;-53
2023/07/04 01:41:16;;;;;;;6.78;5.18;;;17.80;94.70;;;;;;5042064;28;20056;-53
2023/07/04 01:44:07;;;;;;;6.63;4.35;;;17.60;94.80;;;;;;5036439;28;20095;-53
2023/07/04 01:46:53;;;;;;;7.90;4.85;;;17.60;95.10;;;;;;5053065;28;20035;-53
2023/07/04 01:49:39;;;;;;;7.82;4.90;;;17.50;95.10;;;;;;5052551;28;20112;-52
2023/07/04 01:52:27;;;;;;;9.73;5.32;;;17.60;95.20;;;;;;5060166;28;20106;-52
2023/07/04 01:55:14;;;;;;;7.85;5.05;;;17.60;95.10;;;;;;5055742;28;20017;-51
2023/07/04 01:58:00;;;;;;;6.00;4.75;;;17.60;95.30;;;;;;5040594;28;20090;-55
2023/07/04 02:00:46;;;;;;;8.13;4.97;;;17.60;95.40;;;;;;5035480;28;20119;-55
2023/07/04 02:03:32;;;;;;;7.00;5.13;;;17.70;95.10;;;;;;5035212;28;20053;-56
2023/07/04 02:06:19;;;;;;;7.07;5.03;;;17.70;95.10;;;;;;5035296;28;20037;-55
2023/07/04 02:09:05;;;;;;;6.85;5.05;;;17.80;95.00;;;;;;5014311;28;20069;-53
2023/07/04 02:11:51;;;;;;;9.05;4.72;;;17.80;95.00;;;;;;5029290;28;20109;-55
2023/07/04 02:14:37;;;;;;;6.22;4.53;;;17.80;95.10;;;;;;5033812;28;20112;-56
2023/07/04 02:17:23;;;;;;;6.22;4.63;;;17.70;95.50;;;;;;5034537;28;20032;-54
2023/07/04 02:20:10;;;;;;;6.82;4.40;;;17.60;95.60;;;;;;5053345;28;20033;-53
2023/07/04 02:22:56;;;;;;;8.10;5.15;;;17.60;95.70;;;;;;5051719;28;20498;-56
2023/07/04 02:25:43;;;;;;;6.70;4.78;;;17.50;95.90;;;;;;5053152;28;20029;-51
2023/07/04 02:28:29;;;;;;;6.35;4.75;;;17.50;96.00;;;;;;5054076;28;20033;-51
2023/07/04 02:31:14;;;;;;;5.90;4.45;;;17.50;96.20;;;;;;5054573;28;20374;-54
2023/07/04 02:34:00;;;;;;;12.18;5.18;;;17.50;96.20;;;;;;5051972;28;20037;-51
2023/07/04 02:36:48;;;;;;;9.90;4.88;;;17.40;96.50;;;;;;5052187;28;20064;-54
2023/07/04 02:39:34;;;;;;;9.20;5.00;;;17.40;96.70;;;;;;5050263;28;20017;-51
2023/07/04 02:42:20;;;;;;;7.13;5.22;;;17.30;96.80;;;;;;5033664;28;20079;-51
2023/07/04 02:45:08;;;;;;;6.70;4.75;;;17.30;96.70;;;;;;5033656;28;20033;-52
2023/07/04 02:47:54;;;;;;;6.68;4.50;;;17.30;97.00;;;;;;5044383;28;20064;-51
2023/07/04 02:50:40;;;;;;;7.32;4.65;;;17.10;97.60;;;;;;5053217;28;20535;-50
2023/07/04 02:53:26;;;;;;;6.45;4.78;;;17.20;97.30;;;;;;5042227;28;20068;-52
2023/07/04 02:56:12;;;;;;;6.72;4.93;;;17.10;97.60;;;;;;5033453;28;20036;-51
2023/07/04 02:58:58;;;;;;;7.95;5.05;;;17.00;97.60;;;;;;5032688;28;20032;-53
2023/07/04 03:01:45;;;;;;;7.47;5.50;;;17.20;97.30;;;;;;5034840;28;20026;-54
2023/07/04 03:04:31;;;;;;;7.32;4.68;;;17.30;97.20;;;;;;5033217;28;20090;-52
2023/07/04 03:07:17;;;;;;;6.07;5.07;;;17.40;97.20;;;;;;5047467;28;20090;-53
2023/07/04 03:10:03;;;;;;;7.93;5.10;;;17.40;97.10;;;;;;5049435;28;20032;-53
2023/07/04 03:12:49;;;;;;;6.65;4.80;;;17.40;97.10;;;;;;5036130;28;20028;-52
2023/07/04 03:15:35;;;;;;;8.13;5.10;;;17.30;97.40;;;;;;5062756;28;20441;-55
2023/07/04 03:18:22;;;;;;;8.07;4.72;;;17.00;98.10;;;;;;5032095;28;20028;-54
2023/07/04 03:21:08;;;;;;;9.05;5.90;;;17.10;97.80;;;;;;5038935;28;20166;-54
2023/07/04 03:23:54;;;;;;;7.32;4.82;;;17.10;97.80;;;;;;5052110;28;20151;-53
2023/07/04 03:26:40;;;;;;;9.80;5.65;;;17.00;98.00;;;;;;5051219;28;20044;-56
2023/07/04 03:29:26;;;;;;;6.85;5.20;;;17.10;97.90;;;;;;5052411;28;20066;-53
2023/07/04 03:32:12;;;;;;;7.78;5.47;;;17.30;97.50;;;;;;5051421;28;20489;-53
2023/07/04 03:35:01;;;;;;;7.53;5.00;;;17.20;97.50;;;;;;5047433;28;20025;-54
2023/07/04 03:37:47;;;;;;;9.00;5.65;;;17.20;97.70;;;;;;5032379;28;20030;-52
2023/07/04 03:40:33;;;;;;;7.75;5.38;;;17.30;97.70;;;;;;5034570;28;20090;-51
2023/07/04 03:43:19;;;;;;;7.82;5.45;;;17.40;97.60;;;;;;5031466;28;20026;-52
2023/07/04 03:46:05;;;;;;;12.55;5.18;;;17.50;97.50;;;;;;5032278;28;20708;-51
2023/07/04 03:48:51;;;;;;;6.72;5.00;;;17.60;97.40;;;;;;5034985;28;20033;-54
2023/07/04 03:51:37;;;;;;;6.05;4.97;;;17.70;97.30;;;;;;5061276;28;20065;-54
2023/07/04 03:54:22;;;;;;;7.07;5.25;;;17.70;97.20;;;;;;5033015;28;20537;-53
2023/07/04 03:57:09;;;;;;;8.35;5.15;;;17.70;97.30;;;;;;5033696;28;20042;-54
2023/07/04 03:59:55;;;;;;;6.97;5.45;;;17.70;97.30;;;;;;5034610;28;20036;-56
2023/07/04 04:02:41;;;;;;;11.68;5.85;;;17.70;97.40;;;;;;5032988;28;20061;-55
2023/07/04 04:05:28;;;;;;;6.43;4.90;;;17.70;97.60;;;;;;5032075;28;20032;-55
2023/07/04 04:08:14;;;;;;;9.05;5.57;;;17.80;97.70;;;;;;5012342;28;20032;-55
2023/07/04 04:11:01;;;;;;;5.85;4.57;;;17.80;97.70;;;;;;5037397;28;20036;-54
2023/07/04 04:13:47;;;;;;;7.63;5.40;;;17.80;97.70;;;;;;5051308;28;20087;-53
2023/07/04 04:16:33;;;;;;;7.53;5.63;;;17.80;97.70;;;;;;5049940;28;20064;-57
2023/07/04 04:19:18;;;;;;;9.45;5.55;;;17.90;97.60;;;;;;5051440;28;20021;-56
2023/07/04 04:22:04;;;;;;;9.30;5.95;;;17.90;97.50;;;;;;5035188;28;20103;-55
2023/07/04 04:24:50;;;;;;;8.95;5.90;;;17.90;97.00;;;;;;5034563;28;20112;-54
2023/07/04 04:27:36;;;;;;;8.45;5.45;;;17.80;97.50;;;;;;5036314;28;20064;-53
2023/07/04 04:30:22;;;;;;;7.53;5.30;;;17.70;97.40;;;;;;5052742;28;20401;-52
2023/07/04 04:33:09;;;;;;;7.57;5.88;;;17.60;97.90;;;;;;5051253;28;20029;-53
2023/07/04 04:35:55;;;;;;;9.52;5.93;;;17.60;97.70;;;;;;5050830;28;20029;-55
2023/07/04 04:38:41;;;;;;;11.13;5.85;;;17.50;97.80;;;;;;5051133;28;20025;-56
2023/07/04 04:41:28;;;;;;;10.52;6.40;;;17.40;98.40;;;;;;5023976;28;20104;-56
2023/07/04 04:44:14;;;;;;;10.45;6.22;;;17.20;98.60;;;;;;5032546;28;20033;-55
2023/07/04 04:47:00;;;;;;;9.15;6.10;;;17.30;98.60;;;;;;5034094;28;20029;-54
2023/07/04 04:49:46;;;;;;;7.45;5.65;;;17.40;98.40;;;;;;5035615;28;20552;-56
2023/07/04 04:52:32;;;;;;;12.88;6.47;;;17.40;98.60;;;;;;5035608;28;20486;-53
2023/07/04 04:55:25;;;;;;;12.50;6.75;;;17.20;98.60;;;;;;5038583;28;20029;-56
2023/07/04 04:58:11;;;;;;;9.35;6.78;;;17.20;99.00;;;;;;5036902;28;20033;-50
2023/07/04 05:01:04;;;;;;;14.02;6.05;;;17.20;99.30;;;;;;5033612;28;20108;-50
2023/07/04 05:03:52;;;;;;;11.77;6.40;;;17.30;99.20;;;;;;5035419;28;20025;-50
2023/07/04 05:06:38;;;;;;;9.88;6.60;;;17.20;99.30;;;;;;5034517;28;20120;-54
2023/07/04 05:09:24;;;;;;;10.43;6.63;;;17.30;99.40;;;;;;5036834;28;20029;-54
2023/07/04 05:12:10;;;;;;;10.15;6.25;;;17.50;99.30;;;;;;5050212;28;20029;-51
2023/07/04 05:14:56;;;;;;;12.57;7.00;;;17.60;99.00;;;;;;5038876;28;20124;-51
2023/07/04 05:17:42;;;;;;;12.05;6.60;;;17.70;98.70;;;;;;5033865;28;20104;-52
2023/07/04 05:20:28;;;;;;;12.27;6.95;;;17.70;98.70;;;;;;5028595;28;20172;-55
2023/07/04 05:23:14;;;;;;;15.25;6.60;;;17.80;98.80;;;;;;5032478;28;20025;-51
2023/07/04 05:26:24;;;;;;;10.70;6.38;;;17.80;98.50;;;;;;5032491;28;20033;-51
2023/07/04 05:29:10;;;;;;;13.32;6.82;;;17.90;98.20;;;;;;5052138;28;20072;-56
2023/07/04 05:31:56;;;;;;;13.32;7.20;;;17.90;98.40;;;;;;5034777;28;20060;-53
2023/07/04 05:34:46;;;;;;;12.93;6.53;;;18.00;98.40;;;;;;5032286;28;20025;-51
2023/07/04 05:37:32;;;;;;;19.70;7.63;;;18.10;98.20;;;;;;5036230;28;20148;-51
2023/07/04 05:40:18;;;;;;;10.50;6.22;;;18.30;97.80;;;;;;5026841;28;20033;-60
2023/07/04 05:43:04;;;;;;;8.25;6.47;;;18.20;97.80;;;;;;5033523;28;20060;-53
2023/07/04 05:45:51;;;;;;;12.65;6.95;;;18.30;97.60;;;;;;5036224;28;20040;-54
2023/07/04 05:48:37;;;;;;;13.85;7.18;;;18.20;97.30;;;;;;5033821;28;20037;-49
2023/07/04 05:51:24;;;;;;;10.82;6.80;;;18.20;97.00;;;;;;5034897;28;20021;-52
2023/07/04 05:54:10;;;;;;;17.13;7.03;;;18.30;97.10;;;;;;5039318;28;20539;-55
2023/07/04 05:56:56;;;;;;;10.85;6.63;;;18.50;96.30;;;;;;5030819;28;20041;-55
2023/07/04 05:59:42;;;;;;;12.00;6.70;;;18.50;95.70;;;;;;5035075;28;20033;-54
2023/07/04 06:02:28;;;;;;;16.17;6.35;;;18.40;95.40;;;;;;5040175;28;20629;-51
2023/07/04 06:05:14;;;;;;;13.52;6.40;;;18.40;95.40;;;;;;5042314;28;20044;-51
2023/07/04 06:08:00;;;;;;;13.30;6.15;;;18.40;95.00;;;;;;5047378;28;20051;-53
2023/07/04 06:11:00;;;;;;;15.40;6.90;;;18.40;95.30;;;;;;5048913;28;20025;-51
2023/07/04 06:13:47;;;;;;;10.88;6.40;;;18.40;95.50;;;;;;5034859;28;20443;-53
2023/07/04 06:16:36;;;;;;;12.23;6.15;;;18.60;94.60;;;;;;5034316;28;20021;-55
2023/07/04 06:19:24;;;;;;;10.38;5.80;;;18.50;94.70;;;;;;5034246;28;20021;-56
2023/07/04 06:22:10;;;;;;;14.85;6.40;;;18.50;94.70;;;;;;5034614;28;20033;-52
2023/07/04 06:24:56;;;;;;;20.83;6.20;;;18.60;94.30;;;;;;5062649;28;20030;-55
2023/07/04 06:27:44;;;;;;;10.50;6.03;;;18.70;94.30;;;;;;5034636;28;20041;-56
2023/07/04 06:30:34;;;;;;;9.10;5.78;;;18.70;94.20;;;;;;5039239;28;20052;-52
2023/07/04 06:33:20;;;;;;;10.32;6.15;;;18.60;93.80;;;;;;5053934;28;20339;-54
2023/07/04 06:36:14;;;;;;;8.48;5.32;;;18.70;94.10;;;;;;5014915;28;20040;-54
2023/07/04 06:39:01;;;;;;;14.23;6.20;;;18.70;93.30;;;;;;5014059;28;20038;-53
2023/07/04 06:41:49;;;;;;;12.93;6.00;;;18.80;92.90;;;;;;5013739;28;20265;-52
2023/07/04 06:44:34;;;;;;;8.73;5.35;;;18.70;93.00;;;;;;5026132;28;20534;-56
2023/07/04 06:47:21;;;;;;;13.20;6.22;;;18.80;93.20;;;;;;5029865;28;20433;-55
2023/07/04 06:50:07;;;;;;;11.40;5.25;;;18.80;93.30;;;;;;5031881;28;20030;-56
2023/07/04 06:52:53;;;;;;;7.95;5.10;;;18.90;92.30;;;;;;5032479;28;20030;-56
2023/07/04 06:55:39;;;;;;;14.68;6.40;;;19.10;91.80;;;;;;5033303;28;20401;-55
2023/07/04 06:58:25;;;;;;;11.40;4.88;;;19.00;92.00;;;;;;5031283;28;20074;-53
2023/07/04 07:01:11;;;;;;;10.50;5.05;;;19.00;92.00;;;;;;5030990;28;20022;-53
2023/07/04 07:03:57;;;;;;;13.32;4.63;;;19.00;91.90;;;;;;5032528;28;20033;-52
2023/07/04 07:06:43;;;;;;;11.27;5.72;;;19.00;91.30;;;;;;5029835;28;20414;-56
2023/07/04 07:09:30;;;;;;;8.93;4.78;;;18.90;91.20;;;;;;5030729;28;20021;-56
2023/07/04 07:12:16;;;;;;;12.63;5.30;;;19.10;91.30;;;;;;5032174;28;20556;-56
2023/07/04 07:15:02;;;;;;;12.38;5.38;;;19.00;91.30;;;;;;5032491;28;20517;-50
2023/07/04 07:17:48;;;;;;;10.23;5.13;;;19.10;91.50;;;;;;5030807;28;20375;-54
2023/07/04 07:20:36;;;;;;;8.50;4.45;;;19.10;91.00;;;;;;5016753;28;20491;-55
2023/07/04 07:23:22;;;;;;;11.65;5.70;;;19.20;91.10;;;;;;5032208;28;20379;-56
2023/07/04 07:26:11;;;;;;;11.63;5.93;;;19.20;91.50;;;;;;5028888;28;20406;-54
2023/07/04 07:28:57;;;;;;;15.43;6.25;;;19.20;92.00;;;;;;5034409;28;20502;-55
2023/07/04 07:31:43;;;;;;;14.32;6.13;;;19.20;92.10;;;;;;5046972;28;20379;-53
2023/07/04 07:34:29;;;;;;;14.38;6.30;;;19.20;92.00;;;;;;5037083;28;20213;-53
2023/07/04 07:37:15;;;;;;;10.73;5.10;;;19.30;92.20;;;;;;5034836;28;20042;-58
2023/07/04 07:40:03;;;;;;;9.25;6.13;;;19.40;92.20;;;;;;5032475;28;20025;-57
2023/07/04 07:42:49;;;;;;;9.75;5.82;;;19.40;91.90;;;;;;5033424;28;20021;-54
2023/07/04 07:45:35;;;;;;;12.27;5.32;;;19.60;91.70;;;;;;5049932;28;20104;-51
2023/07/04 07:48:21;;;;;;;9.23;5.95;;;19.60;91.70;;;;;;5070335;28;20107;-54
2023/07/04 07:51:09;;;;;;;10.32;5.82;;;19.70;91.60;;;;;;5055554;28;20036;-50
2023/07/04 07:53:57;;;;;;;10.15;5.72;;;19.60;91.40;;;;;;5046661;28;20775;-50
2023/07/04 07:56:45;;;;;;;11.13;5.43;;;19.60;91.50;;;;;;5028073;28;20036;-51
2023/07/04 07:59:31;;;;;;;8.73;5.25;;;19.50;91.60;;;;;;5033581;28;20064;-55
2023/07/04 08:02:17;;;;;;;12.05;5.50;;;19.40;91.60;;;;;;5031903;28;20465;-56
2023/07/04 08:05:03;;;;;;;10.80;5.97;;;19.40;92.10;;;;;;5035621;28;20029;-53
2023/07/04 08:07:49;;;;;;;11.75;6.07;;;19.70;91.90;;;;;;5031891;28;20506;-55
2023/07/04 08:10:40;;;;;;;13.02;5.90;;;19.70;91.50;;;;;;5023495;28;20140;-52
2023/07/04 08:13:26;;;;;;;9.20;5.32;;;19.70;90.80;;;;;;5034288;28;20059;-52
2023/07/04 08:16:17;;;;;;;10.40;4.82;;;19.80;90.60;;;;;;5030831;28;20037;-54
2023/07/04 08:19:03;;;;;;;9.48;5.15;;;19.80;90.00;;;;;;5035388;28;20114;-52
2023/07/04 08:21:49;;;;;;;12.93;5.53;;;19.80;90.30;;;;;;5032596;28;20040;-52
2023/07/04 08:24:35;;;;;;;9.52;5.25;;;19.80;90.50;;;;;;5038278;28;20033;-55
2023/07/04 08:27:24;;;;;;;9.32;5.35;;;19.70;90.40;;;;;;5048081;28;20051;-55
2023/07/04 08:30:10;;;;;;;11.82;5.05;;;19.80;89.80;;;;;;5056815;28;20119;-54
2023/07/04 08:32:56;;;;;;;10.27;4.68;;;19.90;88.70;;;;;;5040186;28;20029;-55
2023/07/04 08:35:54;;;;;;;10.23;5.00;;;19.90;89.10;;;;;;5037101;28;20036;-52
2023/07/04 08:38:41;;;;;;;11.43;4.82;;;20.00;89.50;;;;;;5042068;28;20081;-54
2023/07/04 08:41:39;;;;;;;7.35;4.70;;;20.20;88.70;;;;;;5037449;28;20041;-56
2023/07/04 08:44:34;;;;;;;10.45;4.78;;;20.10;87.90;;;;;;5036173;28;20025;-54
2023/07/04 08:47:25;;;;;;;10.00;5.10;;;20.30;87.10;;;;;;5042000;28;20041;-50
2023/07/04 08:50:21;;;;;;;11.25;5.57;;;20.50;87.80;;;;;;5038463;28;20045;-55
2023/07/04 08:53:19;;;;;;;9.55;5.07;;;20.60;87.60;;;;;;5034338;28;20030;-53
2023/07/04 08:56:34;;;;;;;12.52;5.70;;;20.40;87.30;;;;;;5035403;28;20032;-56
2023/07/04 08:59:40;;;;;;;8.40;4.97;;;20.50;87.10;;;;;;5035481;28;20120;-52
2023/07/04 09:02:35;;;;;;;9.32;5.32;;;20.50;86.50;;;;;;5035205;28;20032;-52
2023/07/04 09:05:21;;;;;;;12.88;6.43;;;20.60;86.70;;;;;;5035200;28;20037;-52
2023/07/04 09:08:27;;;;;;;12.90;5.82;;;20.70;87.00;;;;;;5034451;28;20410;-53
2023/07/04 09:11:16;;;;;;;9.70;5.07;;;20.80;87.80;;;;;;5040333;28;20033;-55
2023/07/04 09:14:12;;;;;;;10.13;5.18;;;21.00;85.70;;;;;;5035756;28;20030;-55
2023/07/04 09:17:02;;;;;;;11.48;5.85;;;21.00;85.60;;;;;;5015538;28;20061;-54
2023/07/04 09:19:49;;;;;;;8.82;4.93;;;21.20;85.30;;;;;;5052698;28;20033;-51
2023/07/04 09:22:36;;;;;;;8.65;4.68;;;21.30;85.20;;;;;;5052367;28;20033;-51
2023/07/04 09:25:22;;;;;;;8.75;4.80;;;21.40;86.10;;;;;;5037396;28;20065;-49
2023/07/04 09:28:08;;;;;;;9.90;4.95;;;21.60;85.00;;;;;;5034690;28;20091;-53
2023/07/04 09:30:58;;;;;;;7.32;4.50;;;21.50;81.50;;;;;;5034332;28;20498;-52
2023/07/04 09:33:47;;;;;;;8.35;4.80;;;21.30;81.20;;;;;;5034735;28;20056;-53
2023/07/04 09:36:37;;;;;;;6.63;4.18;;;21.10;81.90;;;;;;5034449;28;20042;-49
2023/07/04 09:39:54;;;;;;;8.90;4.82;;;21.50;82.30;;;;;;5035051;28;20505;-52
2023/07/04 09:42:43;;;;;;;11.23;4.90;;;21.80;81.30;;;;;;5026918;28;20040;-50
2023/07/04 09:45:29;;;;;;;8.95;5.15;;;21.80;81.80;;;;;;5037707;28;20030;-55
2023/07/04 09:48:24;;;;;;;9.05;5.05;;;21.70;81.70;;;;;;5014870;28;20085;-54
2023/07/04 09:51:16;;;;;;;;;;;21.70;81.70;;;;;;5025473;28;20048;-50
2023/07/04 09:54:13;;;;;;;11.75;5.28;;;21.50;81.90;;;;;;5037752;28;19909;-49
2023/07/04 09:57:34;;;;;;;11.27;6.45;;;21.50;82.90;;;;;;5020900;28;20021;-49
2023/07/04 10:00:25;;;;;;;10.27;5.72;;;21.50;83.60;;;;;;5014698;28;20030;-53
2023/07/04 10:03:12;;;;;;;13.50;5.72;;;21.60;83.20;;;;;;5036785;28;20026;-49
2023/07/04 10:05:58;;;;;;;9.32;5.05;;;21.60;82.40;;;;;;5023447;28;20029;-52
2023/07/04 10:08:49;;;;;;;10.68;5.35;;;21.60;82.20;;;;;;5038994;28;20468;-53
2023/07/04 10:11:39;;;;;;;12.10;5.05;;;21.60;81.30;;;;;;5047636;28;20022;-52
2023/07/04 10:14:35;;;;;;;10.73;5.53;;;21.90;79.60;;;;;;5034766;28;20029;-49
2023/07/04 10:17:30;;;;;;;7.68;4.95;;;21.80;79.40;;;;;;5034511;28;20394;-51
2023/07/04 10:20:16;;;;;;;9.73;5.53;;;21.90;80.00;;;;;;5034250;28;20025;-54
2023/07/04 10:23:02;;;;;;;7.70;5.30;;;22.20;79.60;;;;;;5033918;28;20064;-52
2023/07/04 10:25:50;;;;;;;10.88;5.40;;;22.30;78.90;;;;;;5033565;28;20116;-50
2023/07/04 10:28:37;;;;;;;9.70;6.05;;;22.20;78.30;;;;;;5034628;28;20145;-53
2023/07/04 10:31:23;;;;;;;9.10;5.38;;;22.20;78.00;;;;;;5035142;28;20056;-51
2023/07/04 10:34:15;;;;;;;10.90;5.95;;;22.30;78.70;;;;;;5034606;28;20034;-54
2023/07/04 10:37:03;;;;;;;9.82;5.38;;;22.30;79.20;;;;;;5034360;28;20429;-54
2023/07/04 10:39:54;;;;;;;10.13;5.05;;;22.20;78.70;;;;;;5038330;28;20032;-56
2023/07/04 10:42:55;;;;;;;9.68;5.55;;;22.30;78.80;;;;;;5052966;28;20287;-57
2023/07/04 10:45:45;;;;;;;7.50;5.20;;;22.40;79.50;;;;;;5014772;28;20100;-58
2023/07/04 10:48:34;;;;;;;13.95;5.80;;;22.50;79.80;;;;;;5013535;28;20052;-56
2023/07/04 10:51:27;;;;;;;9.13;5.43;;;22.60;78.10;;;;;;5026901;28;20025;-56
2023/07/04 10:54:13;;;;;;;7.93;5.40;;;22.70;78.10;;;;;;5013748;28;20091;-56
2023/07/04 10:57:08;;;;;;;7.57;4.45;;;22.70;78.10;;;;;;5014320;28;20040;-55
2023/07/04 11:00:04;;;;;;;12.52;6.63;;;22.70;78.30;;;;;;5012919;28;20026;-63
2023/07/04 11:02:54;;;;;;;12.00;6.35;;;22.80;77.00;;;;;;5012861;28;20026;-61
2023/07/04 11:05:45;;;;;;;10.07;6.40;;;22.70;76.40;;;;;;5043168;28;20037;-61
2023/07/04 11:08:34;;;;;;;8.63;6.05;;;22.70;75.90;;;;;;5023095;28;20037;-61
2023/07/04 11:11:30;;;;;;;14.32;6.78;;;22.70;75.10;;;;;;5012284;28;20038;-61
2023/07/04 11:14:26;;;;;;;10.15;6.10;;;22.70;76.20;;;;;;5013191;28;20542;-59
2023/07/04 11:17:18;;;;;;;8.90;6.40;;;22.90;75.20;;;;;;5013446;28;20034;-61
2023/07/04 11:20:11;;;;;;;8.88;5.95;;;22.80;75.40;;;;;;5012994;28;20117;-60
2023/07/04 11:23:11;;;;;;;10.10;6.38;;;22.70;75.60;;;;;;5013004;28;20036;-60
2023/07/04 11:26:05;;;;;;;8.90;6.53;;;22.80;76.10;;;;;;5012382;28;20034;-59
2023/07/04 11:29:15;;;;;;;14.50;6.72;;;22.70;75.50;;;;;;5013083;28;20419;-60
2023/07/04 11:32:04;;;;;;;11.25;6.45;;;22.80;76.10;;;;;;5013272;28;20753;-60
2023/07/04 11:35:09;;;;;;;9.80;6.72;;;22.90;75.70;;;;;;5012438;28;20049;-57
2023/07/04 11:38:03;;;;;;;9.02;6.65;;;22.90;76.50;;;;;;5016717;28;20064;-61
2023/07/04 11:40:55;;;;;;;9.25;6.68;;;22.90;75.00;;;;;;5021469;28;20068;-61
2023/07/04 11:43:45;;;;;;;10.07;5.93;;;22.80;75.60;;;;;;5013452;28;20095;-61
2023/07/04 11:46:31;;;;;;;11.13;6.07;;;22.90;75.40;;;;;;5012033;28;20052;-57
2023/07/04 11:49:19;;;;;;;10.82;6.30;;;22.70;75.80;;;;;;5012224;28;20486;-59
2023/07/04 11:52:19;;;;;;;10.60;7.40;;;22.60;75.40;;;;;;5012437;28;20026;-56
2023/07/04 11:55:09;;;;;;;10.57;6.40;;;22.70;76.50;;;;;;5012321;28;20030;-59
2023/07/04 11:58:08;;;;;;;9.15;7.00;;;23.00;76.20;;;;;;5011673;28;20030;-59
2023/07/04 12:01:03;;;;;;;10.85;7.70;;;23.20;75.10;;;;;;5012263;28;20030;-58
2023/07/04 12:03:57;;;;;;;15.23;7.20;;;22.90;74.60;;;;;;5012445;28;20041;-59
2023/07/04 12:07:01;;;;;;;13.68;7.55;;;22.90;74.30;;;;;;5013171;28;20018;-60
2023/07/04 12:10:06;;;;;;;12.48;7.13;;;23.10;74.60;;;;;;5015570;28;20030;-58
2023/07/04 12:13:01;;;;;;;12.77;6.65;;;23.30;73.70;;;;;;5012662;28;20030;-59
2023/07/04 12:15:51;;;;;;;11.35;7.18;;;23.20;73.50;;;;;;5014341;28;20038;-60
2023/07/04 12:18:39;;;;;;;9.75;7.07;;;23.10;73.80;;;;;;5017669;28;20038;-60
2023/07/04 12:21:27;;;;;;;10.32;6.95;;;23.20;74.70;;;;;;5016825;28;20109;-59
2023/07/04 12:24:18;;;;;;;13.45;7.45;;;23.30;74.80;;;;;;5012929;28;20056;-55
2023/07/04 12:27:06;;;;;;;10.23;7.43;;;23.30;74.40;;;;;;5012460;28;20088;-58
2023/07/04 12:29:51;;;;;;;10.23;7.95;;;23.40;74.30;;;;;;5012912;28;20030;-58
2023/07/04 12:32:38;;;;;;;14.00;7.75;;;23.30;74.00;;;;;;5012668;28;20028;-58
2023/07/04 12:35:28;;;;;;;12.43;7.97;;;23.40;74.30;;;;;;5011510;28;20052;-58
2023/07/04 12:38:14;;;;;;;11.07;7.70;;;23.30;74.50;;;;;;5011406;28;20052;-56
2023/07/04 12:41:00;;;;;;;15.13;8.55;;;23.30;74.40;;;;;;5016099;28;20113;-58
2023/07/04 12:43:55;;;;;;;13.68;8.15;;;23.40;73.90;;;;;;5019381;28;20018;-58
2023/07/04 12:46:43;;;;;;;13.70;7.03;;;23.70;73.40;;;;;;5016934;28;20030;-57
2023/07/04 12:49:29;;;;;;;11.77;8.40;;;23.90;73.50;;;;;;5011913;28;20030;-58
2023/07/04 12:52:16;;;;;;;15.77;9.60;;;24.00;73.70;;;;;;5012133;28;20033;-57
2023/07/04 12:55:03;;;;;;;11.88;9.07;;;24.20;72.80;;;;;;5012399;28;20410;-53
2023/07/04 12:57:51;;;;;;;9.32;7.97;;;24.20;73.10;;;;;;5018771;28;20073;-59
2023/07/04 13:00:58;;;;;;;9.98;8.02;;;24.10;73.30;;;;;;5027037;28;20618;-56
2023/07/04 13:03:45;;;;;;;13.40;8.77;;;24.40;73.00;;;;;;5013241;28;20083;-56
2023/07/04 13:06:31;;;;;;;14.10;9.02;;;24.60;71.90;;;;;;5011811;28;20050;-58
2023/07/04 13:09:19;;;;;;;10.10;8.65;;;24.80;72.10;;;;;;5015335;28;20030;-59
2023/07/04 13:12:05;;;;;;;10.80;8.35;;;24.60;72.10;;;;;;5015809;28;20026;-59
2023/07/04 13:15:26;;;;;;;13.18;9.07;;;24.40;71.90;;;;;;5014971;28;20038;-59
2023/07/04 13:18:12;;;;;;;13.15;9.20;;;24.50;72.20;;;;;;5014541;28;20454;-58
2023/07/04 13:20:58;;;;;;;11.88;9.35;;;24.80;72.40;;;;;;5054036;28;20040;-57
2023/07/04 13:23:45;;;;;;;12.73;8.70;;;25.20;70.70;;;;;;5039261;28;20022;-57
2023/07/04 13:26:33;;;;;;;15.43;9.98;;;25.10;70.40;;;;;;5034823;28;20029;-58
2023/07/04 13:29:26;;;;;;;12.40;10.48;;;25.30;70.90;;;;;;5037491;28;20469;-58
2023/07/04 13:32:20;;;;;;;14.88;9.45;;;25.50;69.70;;;;;;5053660;28;20120;-57
2023/07/04 13:35:33;;;;;;;17.70;9.88;;;25.30;70.20;;;;;;5053016;28;20121;-59
2023/07/04 13:38:21;;;;;;;13.57;9.85;;;25.20;69.60;;;;;;5053151;28;20017;-58
2023/07/04 13:41:08;;;;;;;14.25;11.23;;;25.30;69.60;;;;;;5054390;28;20078;-58
2023/07/04 13:43:54;;;;;;;12.05;9.52;;;25.10;68.60;;;;;;5052269;28;20039;-59
2023/07/04 13:46:41;;;;;;;13.93;9.80;;;25.10;68.80;;;;;;5053233;28;20516;-58
2023/07/04 13:49:27;;;;;;;14.13;10.38;;;25.50;68.80;;;;;;5053246;28;20071;-54
2023/07/04 13:52:13;;;;;;;13.90;10.25;;;25.50;68.20;;;;;;5054651;28;20025;-56
2023/07/04 13:54:59;;;;;;;13.05;9.90;;;25.60;68.50;;;;;;5054129;28;20104;-54
2023/07/04 13:57:45;;;;;;;12.52;9.95;;;25.80;67.70;;;;;;5051676;28;20033;-55
2023/07/04 14:00:31;;;;;;;14.55;11.57;;;25.90;67.00;;;;;;5054257;28;20379;-56
2023/07/04 14:03:17;;;;;;;14.55;10.05;;;25.70;67.10;;;;;;5054441;28;20021;-59
2023/07/04 14:06:05;;;;;;;12.82;10.40;;;25.30;68.10;;;;;;5051374;28;20079;-59
2023/07/04 14:08:51;;;;;;;13.88;10.07;;;25.20;68.00;;;;;;5035573;28;20029;-55
2023/07/04 14:11:37;;;;;;;11.65;9.82;;;25.60;67.50;;;;;;5033419;28;20032;-59
2023/07/04 14:14:23;;;;;;;13.50;10.07;;;25.80;65.60;;;;;;5031061;28;20092;-58
2023/07/04 14:17:09;;;;;;;13.23;9.45;;;25.40;65.70;;;;;;5030574;28;20021;-57
2023/07/04 14:19:55;;;;;;;11.95;9.57;;;25.10;66.10;;;;;;5031469;28;20022;-57
2023/07/04 14:22:41;;;;;;;12.90;9.55;;;25.40;66.50;;;;;;5032404;28;20025;-56
2023/07/04 14:25:26;;;;;;;12.07;9.65;;;25.70;66.30;;;;;;5035946;28;20025;-57
2023/07/04 14:28:12;;;;;;;12.07;9.35;;;25.80;65.70;;;;;;5029545;28;20068;-59
2023/07/04 14:30:58;;;;;;;13.20;9.30;;;25.70;65.60;;;;;;5034963;28;20025;-55
2023/07/04 14:33:44;;;;;;;12.90;9.82;;;26.00;66.60;;;;;;5034113;28;20030;-57